Time;durP1;ratioP1;P1;durP2;ratioP2;P2;SDS_P1;SDS_P2;PMS_P1;PMS_P2;Temp;Humidity;BMP_temperature;BMP_pressure;BME280_temperature;BME280_humidity;BME280_pressure;Samples;Min_cycle;Max_cycle;Signal;HPM_P1;HPM_P2
2021/10/30 00:01:06;;;;;;;;;24.25;21.00;;;;;15.13;74.95;100020.88;4944678;28;45286;-60
2021/10/30 00:03:32;;;;;;;;;20.00;18.25;;;;;15.12;75.20;100017.38;4944310;28;45532;-60
2021/10/30 00:05:58;;;;;;;;;18.00;16.75;;;;;15.11;75.05;100007.75;4944853;28;45307;-61
2021/10/30 00:08:28;;;;;;;;;21.25;20.00;;;;;15.12;75.05;100009.41;4943950;28;45711;-60
2021/10/30 00:10:53;;;;;;;;;21.75;18.00;;;;;15.09;74.88;100001.75;4944290;28;45584;-60
2021/10/30 00:13:19;;;;;;;;;20.25;19.75;;;;;15.08;75.19;99992.09;4944206;28;45239;-60
2021/10/30 00:15:44;;;;;;;;;21.00;21.00;;;;;15.10;74.98;99984.84;4944372;28;45212;-61
2021/10/30 00:18:10;;;;;;;;;24.75;19.00;;;;;15.12;74.95;99996.16;4943740;28;45525;-60
2021/10/30 00:20:35;;;;;;;;;20.75;17.75;;;;;15.14;75.01;99994.19;4944191;28;45438;-61
2021/10/30 00:23:01;;;;;;;;;22.75;18.00;;;;;15.15;74.93;99987.91;4943984;28;45232;-60
2021/10/30 00:25:27;;;;;;;;;25.75;19.00;;;;;15.15;74.75;99979.94;4944709;28;45500;-60
2021/10/30 00:27:52;;;;;;;;;22.00;17.75;;;;;15.16;75.04;99978.97;4944085;28;45978;-59
2021/10/30 00:30:18;;;;;;;;;18.50;16.50;;;;;15.18;75.05;99977.03;4944412;28;45458;-59
2021/10/30 00:32:43;;;;;;;;;19.50;17.75;;;;;15.18;74.73;99978.84;4944128;28;45271;-59
2021/10/30 00:35:09;;;;;;;;;21.50;16.75;;;;;15.18;74.87;99976.22;4943786;28;45551;-58
2021/10/30 00:37:34;;;;;;;;;16.50;15.00;;;;;15.18;74.61;99966.44;4943771;28;45412;-59
2021/10/30 00:40:00;;;;;;;;;22.00;17.25;;;;;15.19;75.02;99961.97;4943816;28;45382;-59
2021/10/30 00:42:25;;;;;;;;;16.50;16.25;;;;;15.19;74.87;99956.66;4943816;28;45290;-58
2021/10/30 00:44:51;;;;;;;;;17.25;15.75;;;;;15.18;74.94;99958.47;4943904;28;45347;-58
2021/10/30 00:47:16;;;;;;;;;18.75;15.50;;;;;15.17;74.96;99955.97;4943684;28;46129;-59
2021/10/30 00:49:43;;;;;;;;;14.75;13.00;;;;;15.14;75.07;99949.09;4943560;28;45243;-60
2021/10/30 00:52:10;;;;;;;;;15.50;14.50;;;;;15.15;74.97;99944.63;4943725;28;45282;-60
2021/10/30 00:54:37;;;;;;;;;14.25;13.50;;;;;15.17;75.20;99940.03;4943699;28;45266;-59
2021/10/30 00:57:03;;;;;;;;;15.25;13.00;;;;;15.17;74.95;99940.88;4943584;28;45392;-59
2021/10/30 00:59:29;;;;;;;;;15.25;14.75;;;;;15.19;75.13;99938.91;4943595;28;45355;-59
2021/10/30 01:01:55;;;;;;;;;15.00;15.00;;;;;15.19;74.84;99933.63;4943522;28;45248;-60
2021/10/30 01:04:20;;;;;;;;;14.25;14.00;;;;;15.22;75.17;99935.13;4943501;28;45331;-59
2021/10/30 01:06:52;;;;;;;;;14.25;13.50;;;;;15.23;75.20;99939.47;4943273;28;46245;-60
2021/10/30 01:09:20;;;;;;;;;14.25;14.00;;;;;15.23;75.11;99940.28;4943556;28;45301;-60
2021/10/30 01:11:46;;;;;;;;;12.50;11.25;;;;;15.22;75.12;99929.84;4943537;28;45413;-60
2021/10/30 01:14:13;;;;;;;;;13.25;12.50;;;;;15.22;75.08;99930.66;4943559;28;45584;-60
2021/10/30 01:16:39;;;;;;;;;16.00;14.75;;;;;15.21;75.29;99925.50;4943162;28;45422;-60
2021/10/30 01:19:05;;;;;;;;;16.50;13.00;;;;;15.21;75.06;99917.53;4943264;28;45235;-59
2021/10/30 01:21:38;;;;;;;;;16.00;13.00;;;;;15.22;74.95;99920.06;4943299;28;45220;-59
2021/10/30 01:24:06;;;;;;;;;18.75;16.50;;;;;15.23;75.21;99908.47;4943473;28;45499;-60
2021/10/30 01:26:31;;;;;;;;;14.50;11.50;;;;;15.24;75.34;99907.47;4943059;28;46590;-59
2021/10/30 01:29:00;;;;;;;;;16.50;13.50;;;;;15.24;75.13;99904.81;4943138;28;45348;-60
2021/10/30 01:31:26;;;;;;;;;13.00;12.25;;;;;15.26;75.07;99910.84;4943262;28;45379;-59
2021/10/30 01:33:51;;;;;;;;;18.25;15.75;;;;;15.25;75.36;99901.22;4942620;28;45491;-60
2021/10/30 01:36:20;;;;;;;;;12.25;11.75;;;;;15.26;75.34;99904.72;4941473;28;46266;-59
2021/10/30 01:38:46;;;;;;;;;12.50;8.00;;;;;15.25;75.27;99895.06;4942967;28;45288;-59
2021/10/30 01:41:12;;;;;;;;;14.00;12.00;;;;;15.26;75.40;99892.28;4942772;28;45324;-59
2021/10/30 01:43:38;;;;;;;;;13.00;11.25;;;;;15.27;75.20;99893.09;4943027;28;45552;-60
2021/10/30 01:46:04;;;;;;;;;10.00;10.00;;;;;15.27;75.32;99888.63;4942559;28;45409;-59
2021/10/30 01:48:31;;;;;;;;;13.75;12.00;;;;;15.29;75.28;99875.22;4942901;28;45385;-59
2021/10/30 01:50:57;;;;;;;;;14.00;12.75;;;;;15.30;75.17;99876.91;4942889;28;45184;-60
2021/10/30 01:53:22;;;;;;;;;9.75;9.75;;;;;15.27;75.47;99867.41;4943110;28;45475;-59
2021/10/30 01:55:49;;;;;;;;;9.25;9.25;;;;;15.28;75.08;99866.44;4941357;28;45418;-59
2021/10/30 01:58:15;;;;;;;;;13.00;9.25;;;;;15.28;75.63;99870.91;4942590;28;45172;-59
2021/10/30 02:00:42;;;;;;;;;10.00;8.25;;;;;15.29;75.80;99873.41;4942493;28;45223;-60
2021/10/30 02:03:08;;;;;;;;;11.00;9.50;;;;;15.30;75.79;99855.66;4942452;28;45627;-60
2021/10/30 02:05:34;;;;;;;;;8.50;8.00;;;;;15.29;75.92;99849.53;4942484;28;45365;-59
2021/10/30 02:07:59;;;;;;;;;8.50;8.50;;;;;15.29;76.33;99851.34;4942309;28;45434;-60
2021/10/30 02:10:25;;;;;;;;;11.25;10.00;;;;;15.26;76.46;99849.81;4942698;28;45358;-60
2021/10/30 02:12:51;;;;;;;;;12.75;9.75;;;;;15.26;76.19;99844.53;4942860;28;45630;-60
2021/10/30 02:15:17;;;;;;;;;12.50;12.25;;;;;15.27;76.41;99837.41;4942305;28;45240;-60
2021/10/30 02:17:42;;;;;;;;;12.00;11.75;;;;;15.26;76.33;99823.28;4942489;28;45234;-59
2021/10/30 02:20:09;;;;;;;;;15.00;13.25;;;;;15.26;76.36;99818.00;4942313;28;45300;-60
2021/10/30 02:22:36;;;;;;;;;12.75;10.00;;;;;15.27;76.41;99821.47;4942784;28;45621;-60
2021/10/30 02:25:03;;;;;;;;;11.50;9.75;;;;;15.26;76.35;99810.03;4942151;28;45433;-59
2021/10/30 02:27:29;;;;;;;;;14.00;10.25;;;;;15.27;76.65;99803.72;4942323;28;45397;-60
2021/10/30 02:29:54;;;;;;;;;12.75;10.75;;;;;15.28;76.61;99807.22;4942363;28;45332;-60
2021/10/30 02:32:20;;;;;;;;;12.25;11.25;;;;;15.27;76.51;99803.72;4942585;28;45259;-59
2021/10/30 02:34:46;;;;;;;;;9.25;7.00;;;;;15.28;76.52;99799.25;4942144;28;45441;-60
2021/10/30 02:37:11;;;;;;;;;16.25;13.00;;;;;15.28;76.53;99796.59;4942320;28;45303;-59
2021/10/30 02:39:37;;;;;;;;;12.50;10.50;;;;;15.26;76.62;99796.75;4957077;28;45251;-60
2021/10/30 02:42:03;;;;;;;;;12.75;11.75;;;;;15.27;76.53;99784.31;4942337;28;45201;-59
2021/10/30 02:44:30;;;;;;;;;13.00;11.75;;;;;15.28;76.36;99788.66;4942114;28;46029;-60
2021/10/30 02:46:56;;;;;;;;;12.25;10.25;;;;;15.29;76.40;99785.84;4943412;28;45231;-60
2021/10/30 02:49:22;;;;;;;;;12.50;10.25;;;;;15.29;76.46;99780.53;4945495;28;45472;-59
2021/10/30 02:51:47;;;;;;;;;13.25;11.25;;;;;15.29;76.32;99771.75;4945730;28;45540;-59
2021/10/30 02:54:13;;;;;;;;;9.00;8.50;;;;;15.27;76.38;99752.50;4945222;28;45329;-59
2021/10/30 02:56:38;;;;;;;;;14.50;12.00;;;;;15.27;76.29;99757.78;4945528;28;45239;-59
2021/10/30 02:59:04;;;;;;;;;16.50;14.75;;;;;15.23;76.25;99751.94;4945440;28;45427;-59
2021/10/30 03:01:29;;;;;;;;;13.25;9.00;;;;;15.23;76.48;99741.31;4945512;28;45311;-59
2021/10/30 03:03:54;;;;;;;;;6.50;6.25;;;;;15.21;76.19;99732.66;4944784;28;45382;-59
2021/10/30 03:06:23;;;;;;;;;15.50;12.75;;;;;15.19;76.36;99723.19;4945428;28;45319;-59
2021/10/30 03:08:49;;;;;;;;;15.25;12.75;;;;;15.18;76.32;99725.00;4945214;28;45314;-59
2021/10/30 03:11:15;;;;;;;;;14.25;12.50;;;;;15.16;76.35;99719.00;4945528;28;45375;-60
2021/10/30 03:13:41;;;;;;;;;16.25;16.00;;;;;15.16;76.27;99715.50;4944709;28;45303;-59
2021/10/30 03:16:06;;;;;;;;;13.50;13.50;;;;;15.15;76.02;99712.03;4945303;28;45260;-59
2021/10/30 03:18:32;;;;;;;;;12.50;11.25;;;;;15.15;76.37;99704.06;4944919;28;45327;-59
2021/10/30 03:20:58;;;;;;;;;13.25;12.25;;;;;15.14;76.11;99696.25;4945158;28;45281;-59
2021/10/30 03:23:23;;;;;;;;;14.50;12.50;;;;;15.15;76.24;99689.97;4944797;28;45909;-59
2021/10/30 03:25:49;;;;;;;;;9.00;8.00;;;;;15.15;75.98;99689.97;4945372;28;45321;-60
2021/10/30 03:28:14;;;;;;;;;10.25;10.25;;;;;15.14;76.13;99691.78;4945036;28;45512;-59
2021/10/30 03:30:42;;;;;;;;;13.00;12.00;;;;;15.15;76.35;99696.09;4945582;28;45314;-59
2021/10/30 03:33:08;;;;;;;;;16.25;14.75;;;;;15.16;75.77;99679.19;4944462;28;46134;-60
2021/10/30 03:35:34;;;;;;;;;12.50;12.50;;;;;15.16;76.06;99673.91;4945007;28;45267;-60
2021/10/30 03:37:59;;;;;;;;;12.00;10.50;;;;;15.18;75.72;99666.66;4945235;28;45586;-59
2021/10/30 03:40:25;;;;;;;;;16.25;12.00;;;;;15.20;75.91;99664.69;4944843;28;45323;-58
2021/10/30 03:42:50;;;;;;;;;13.00;13.00;;;;;15.21;75.59;99669.00;4944680;28;45394;-59
2021/10/30 03:45:15;;;;;;;;;11.75;10.25;;;;;15.21;75.65;99660.22;4944816;28;45152;-59
2021/10/30 03:47:42;;;;;;;;;13.75;12.75;;;;;15.20;75.63;99662.03;4944556;28;45278;-59
2021/10/30 03:50:08;;;;;;;;;11.25;8.75;;;;;15.20;75.38;99656.72;4944733;28;45611;-60
2021/10/30 03:52:33;;;;;;;;;10.25;9.25;;;;;15.20;75.44;99661.19;4944543;28;46025;-60
2021/10/30 03:54:58;;;;;;;;;13.25;11.00;;;;;15.21;75.47;99655.75;4944482;28;45373;-59
2021/10/30 03:57:24;;;;;;;;;9.25;9.25;;;;;15.22;75.45;99667.19;4944214;28;45317;-60
2021/10/30 03:59:49;;;;;;;;;8.00;8.00;;;;;15.21;75.04;99660.22;4944781;28;45561;-59
2021/10/30 04:02:15;;;;;;;;;11.00;9.00;;;;;15.20;75.38;99663.84;4944217;28;45327;-60
2021/10/30 04:04:40;;;;;;;;;8.00;7.00;;;;;15.19;75.26;99664.84;4944261;28;45339;-59
2021/10/30 04:07:06;;;;;;;;;10.50;10.50;;;;;15.18;75.23;99656.03;4944634;28;45408;-59
2021/10/30 04:09:31;;;;;;;;;11.50;7.25;;;;;15.18;75.43;99658.69;4944581;28;45386;-59
2021/10/30 04:11:57;;;;;;;;;10.75;8.75;;;;;15.18;74.81;99657.84;4944428;28;45222;-59
2021/10/30 04:14:22;;;;;;;;;10.00;8.00;;;;;15.16;75.06;99657.16;4939918;28;45375;-60
2021/10/30 04:16:48;;;;;;;;;11.00;9.50;;;;;15.14;74.98;99646.69;4940783;28;45406;-59
2021/10/30 04:19:14;;;;;;;;;8.00;5.75;;;;;15.16;75.12;99647.38;4944217;28;45475;-60
2021/10/30 04:21:42;;;;;;;;;9.75;8.50;;;;;15.18;74.92;99644.59;4943959;28;45388;-60
2021/10/30 04:24:07;;;;;;;;;9.75;8.50;;;;;15.19;75.02;99641.78;4944039;28;45358;-60
2021/10/30 04:26:33;;;;;;;;;10.00;8.50;;;;;15.19;74.79;99652.41;4944037;28;45279;-60
2021/10/30 04:28:59;;;;;;;;;8.25;7.25;;;;;15.20;74.94;99645.28;4944372;28;45550;-60
2021/10/30 04:31:27;;;;;;;;;8.50;8.00;;;;;15.19;74.94;99647.09;4943937;28;46204;-60
2021/10/30 04:33:58;;;;;;;;;9.25;8.50;;;;;15.22;75.15;99654.75;4943865;28;45315;-60
2021/10/30 04:36:25;;;;;;;;;9.50;7.50;;;;;15.22;74.88;99651.25;4943909;28;45362;-60
2021/10/30 04:38:51;;;;;;;;;8.75;8.75;;;;;15.20;74.85;99647.94;4944018;28;45577;-61
2021/10/30 04:41:18;;;;;;;;;8.50;8.00;;;;;15.19;75.16;99646.25;4943352;28;45359;-60
2021/10/30 04:43:45;;;;;;;;;9.50;8.00;;;;;15.17;75.15;99645.59;4944059;28;45293;-60
2021/10/30 04:46:13;;;;;;;;;12.25;11.75;;;;;15.15;75.30;99643.06;4943639;28;45279;-60
2021/10/30 04:48:38;;;;;;;;;10.50;8.75;;;;;15.13;75.19;99637.06;4943859;28;45407;-60
2021/10/30 04:51:06;;;;;;;;;8.50;8.00;;;;;15.11;75.66;99633.72;4943571;28;45326;-60
2021/10/30 04:53:34;;;;;;;;;8.00;8.00;;;;;15.08;75.69;99631.34;4943481;28;45313;-60
2021/10/30 04:56:00;;;;;;;;;13.00;10.50;;;;;15.04;75.85;99630.00;4943651;28;45322;-60
2021/10/30 04:58:25;;;;;;;;;14.50;11.25;;;;;15.02;76.00;99630.16;4943807;28;45423;-60
2021/10/30 05:00:50;;;;;;;;;11.00;8.75;;;;;15.02;76.07;99619.53;4943415;28;45312;-60
2021/10/30 05:03:16;;;;;;;;;11.00;9.25;;;;;15.02;76.19;99624.00;4943488;28;45281;-61
2021/10/30 05:05:41;;;;;;;;;11.00;9.00;;;;;15.01;75.95;99619.69;4943796;28;45469;-60
2021/10/30 05:08:07;;;;;;;;;10.75;8.25;;;;;15.01;76.32;99617.03;4943671;28;45456;-60
2021/10/30 05:10:32;;;;;;;;;13.00;9.00;;;;;15.01;76.26;99617.88;4942460;28;45460;-60
2021/10/30 05:12:58;;;;;;;;;11.50;8.75;;;;;14.98;76.16;99612.84;4943479;28;45325;-60
2021/10/30 05:15:23;;;;;;;;;7.00;7.00;;;;;14.96;76.45;99616.63;4943460;28;45312;-60
2021/10/30 05:17:49;;;;;;;;;13.00;10.00;;;;;14.97;76.67;99621.78;4943369;28;45492;-60
2021/10/30 05:20:14;;;;;;;;;9.75;8.00;;;;;14.97;76.36;99607.69;4943260;28;46123;-60
2021/10/30 05:22:40;;;;;;;;;10.00;10.00;;;;;14.98;76.39;99617.31;4943384;28;45254;-60
2021/10/30 05:25:06;;;;;;;;;8.75;8.00;;;;;14.98;76.45;99612.84;4943254;28;45363;-59
2021/10/30 05:27:31;;;;;;;;;7.50;7.50;;;;;14.99;76.63;99609.19;4943523;28;45482;-59
2021/10/30 05:29:57;;;;;;;;;7.50;6.75;;;;;14.99;76.51;99605.72;4941838;28;45573;-60
2021/10/30 05:32:22;;;;;;;;;7.50;7.50;;;;;14.99;76.87;99608.38;4943197;28;45296;-60
2021/10/30 05:34:48;;;;;;;;;11.00;9.00;;;;;15.00;76.67;99597.59;4943055;28;45243;-60
2021/10/30 05:37:13;;;;;;;;;8.00;7.75;;;;;15.03;76.64;99601.81;4943245;28;45437;-59
2021/10/30 05:39:40;;;;;;;;;8.75;8.00;;;;;15.02;76.83;99608.94;4943011;28;45403;-60
2021/10/30 05:42:08;;;;;;;;;7.00;6.50;;;;;15.02;77.09;99600.13;4942918;28;45255;-60
2021/10/30 05:44:34;;;;;;;;;9.25;8.00;;;;;14.99;76.94;99606.56;4943084;28;45270;-60
2021/10/30 05:46:59;;;;;;;;;7.25;7.00;;;;;15.01;76.90;99611.72;4943077;28;45278;-60
2021/10/30 05:49:26;;;;;;;;;9.25;9.25;;;;;15.00;77.00;99604.72;4942591;28;45263;-60
2021/10/30 05:51:52;;;;;;;;;9.25;9.00;;;;;15.00;77.15;99605.56;4942945;28;45322;-60
2021/10/30 05:54:18;;;;;;;;;7.75;7.75;;;;;15.00;77.04;99612.69;4942888;28;45426;-60
2021/10/30 05:56:44;;;;;;;;;8.75;8.75;;;;;15.00;77.25;99607.38;4942967;28;45235;-60
2021/10/30 05:59:09;;;;;;;;;7.00;6.75;;;;;14.97;77.15;99595.25;4942608;28;46198;-60
2021/10/30 06:01:34;;;;;;;;;10.00;8.00;;;;;14.97;77.35;99589.13;4943235;28;45188;-60
2021/10/30 06:04:00;;;;;;;;;6.25;4.00;;;;;14.98;77.47;99588.16;4942887;28;45235;-60
2021/10/30 06:06:26;;;;;;;;;7.50;6.00;;;;;15.01;77.55;99593.16;4943007;28;45358;-60
2021/10/30 06:08:51;;;;;;;;;6.00;5.50;;;;;15.02;77.36;99587.72;4942458;28;46022;-60
2021/10/30 06:11:17;;;;;;;;;11.75;8.75;;;;;15.03;77.43;99593.84;4942896;28;45447;-60
2021/10/30 06:13:42;;;;;;;;;11.00;7.00;;;;;15.03;77.60;99589.38;4942540;28;45329;-60
2021/10/30 06:16:08;;;;;;;;;10.75;4.00;;;;;15.06;77.51;99599.69;4942712;28;45355;-60
2021/10/30 06:18:33;;;;;;;;;7.00;6.75;;;;;15.05;77.50;99598.00;4942181;28;45430;-60
2021/10/30 06:20:59;;;;;;;;;7.75;7.75;;;;;15.06;77.74;99599.69;4942405;28;45265;-60
2021/10/30 06:23:24;;;;;;;;;8.75;8.75;;;;;15.05;77.88;99594.53;4942488;28;45330;-60
2021/10/30 06:25:50;;;;;;;;;11.50;9.75;;;;;15.07;77.90;99598.69;4942603;28;45362;-60
2021/10/30 06:28:16;;;;;;;;;7.50;6.75;;;;;15.08;78.00;99595.06;4942128;28;46328;-60
2021/10/30 06:30:42;;;;;;;;;6.50;6.25;;;;;15.08;77.92;99589.75;4942503;28;45270;-60
2021/10/30 06:33:07;;;;;;;;;12.75;9.00;;;;;15.11;77.77;99587.81;4942334;28;45628;-60
2021/10/30 06:35:33;;;;;;;;;19.25;17.50;;;;;15.12;78.09;99590.31;4942771;28;45230;-60
2021/10/30 06:37:58;;;;;;;;;8.25;8.00;;;;;15.14;77.88;99598.09;4942212;28;46012;-60
2021/10/30 06:40:24;;;;;;;;;10.50;7.00;;;;;15.14;77.90;99595.47;4942357;28;45269;-60
2021/10/30 06:42:49;;;;;;;;;6.75;6.75;;;;;15.14;78.09;99596.28;4942374;28;45446;-60
2021/10/30 06:45:15;;;;;;;;;5.50;5.50;;;;;15.14;77.80;99588.34;4942619;28;45251;-60
2021/10/30 06:47:40;;;;;;;;;7.75;7.75;;;;;15.16;77.71;99599.63;4941887;28;46253;-60
2021/10/30 06:50:08;;;;;;;;;13.25;6.25;;;;;15.19;77.92;99596.69;4942153;28;45240;-60
2021/10/30 06:52:37;;;;;;;;;10.25;7.00;;;;;15.19;77.89;99593.22;4941000;28;45251;-59
2021/10/30 06:55:09;;;;;;;;;5.50;5.50;;;;;15.21;77.87;99591.22;4942148;28;45232;-60
2021/10/30 06:57:36;;;;;;;;;6.75;6.75;;;;;15.20;77.76;99584.25;4941958;28;46243;-59
2021/10/30 07:00:06;;;;;;;;;9.00;7.00;;;;;15.20;77.90;99593.06;4942073;28;45283;-59
2021/10/30 07:02:32;;;;;;;;;7.50;6.00;;;;;15.19;78.01;99580.78;4941817;28;45415;-60
2021/10/30 07:04:58;;;;;;;;;9.00;7.00;;;;;15.20;77.75;99577.13;4942148;28;45589;-60
2021/10/30 07:07:24;;;;;;;;;7.00;6.00;;;;;15.22;77.61;99582.28;4941905;28;45386;-60
2021/10/30 07:09:50;;;;;;;;;4.25;4.25;;;;;15.23;77.71;99576.00;4941795;28;45394;-60
2021/10/30 07:12:15;;;;;;;;;7.50;5.00;;;;;15.23;77.77;99573.34;4942094;28;45422;-60
2021/10/30 07:14:41;;;;;;;;;7.00;5.00;;;;;15.22;77.60;99572.50;4942073;28;45621;-60
2021/10/30 07:17:06;;;;;;;;;4.50;4.50;;;;;15.22;77.46;99575.16;4941770;28;45405;-60
2021/10/30 07:19:33;;;;;;;;;5.00;5.00;;;;;15.22;77.70;99584.94;4940588;28;45387;-60
2021/10/30 07:21:59;;;;;;;;;7.25;6.00;;;;;15.23;77.42;99582.13;4941871;28;45247;-60
2021/10/30 07:24:24;;;;;;;;;6.75;6.00;;;;;15.25;77.63;99593.44;4941855;28;45512;-60
2021/10/30 07:26:50;;;;;;;;;5.75;5.00;;;;;15.26;77.36;99589.81;4941515;28;45905;-60
2021/10/30 07:29:15;;;;;;;;;8.00;6.00;;;;;15.30;77.42;99583.22;4941771;28;45220;-60
2021/10/30 07:31:41;;;;;;;;;5.00;5.00;;;;;15.33;77.33;99595.38;4941883;28;45459;-60
2021/10/30 07:34:07;;;;;;;;;8.00;4.75;;;;;15.32;77.33;99586.56;4959418;28;45267;-60
2021/10/30 07:36:32;;;;;;;;;7.00;5.00;;;;;15.33;77.61;99576.78;4944916;28;45422;-60
2021/10/30 07:38:58;;;;;;;;;6.25;6.00;;;;;15.35;76.94;99594.22;4944861;28;45279;-60
2021/10/30 07:41:23;;;;;;;;;5.00;5.00;;;;;15.39;76.81;99591.25;4944817;28;45401;-60
2021/10/30 07:43:53;;;;;;;;;4.75;4.75;;;;;15.43;77.04;99595.28;4943816;28;45372;-60
2021/10/30 07:46:20;;;;;;;;;6.50;5.50;;;;;15.46;77.05;99593.16;4944659;28;45252;-59
2021/10/30 07:48:45;;;;;;;;;4.50;4.50;;;;;15.45;76.94;99604.75;4944590;28;45387;-61
2021/10/30 07:51:11;;;;;;;;;8.00;6.00;;;;;15.46;76.86;99606.44;4944712;28;45248;-60
2021/10/30 07:53:36;;;;;;;;;6.00;5.25;;;;;15.49;76.78;99616.75;4944859;28;45213;-60
2021/10/30 07:56:02;;;;;;;;;4.50;4.50;;;;;15.51;76.69;99616.59;4944560;28;45931;-60
2021/10/30 07:58:28;;;;;;;;;5.25;4.00;;;;;15.50;76.54;99618.44;4944730;28;45401;-60
2021/10/30 08:00:53;;;;;;;;;5.00;5.00;;;;;15.50;76.78;99617.59;4944670;28;45298;-60
2021/10/30 08:03:19;;;;;;;;;5.75;5.00;;;;;15.52;76.46;99613.81;4944349;28;45413;-60
2021/10/30 08:05:44;;;;;;;;;6.25;4.00;;;;;15.55;76.46;99617.97;4944389;28;45374;-60
2021/10/30 08:08:10;;;;;;;;;4.75;4.75;;;;;15.57;76.53;99619.50;4944446;28;45331;-60
2021/10/30 08:10:35;;;;;;;;;6.00;5.75;;;;;15.60;76.63;99624.50;4944631;28;45302;-61
2021/10/30 08:13:01;;;;;;;;;6.25;5.50;;;;;15.65;76.55;99624.09;4944661;28;45460;-60
2021/10/30 08:15:26;;;;;;;;;6.25;4.00;;;;;15.69;76.39;99628.09;4955869;28;46323;-60
2021/10/30 08:17:52;;;;;;;;;6.25;6.25;;;;;15.74;76.25;99635.63;4936283;28;45272;-59
2021/10/30 08:20:18;;;;;;;;;7.00;5.00;;;;;15.79;76.32;99634.16;4944342;28;45309;-60
2021/10/30 08:22:45;;;;;;;;;7.50;5.50;;;;;15.83;76.07;99637.38;4944428;28;45203;-60
2021/10/30 08:25:11;;;;;;;;;5.75;5.75;;;;;15.87;76.18;99641.38;4941056;28;46295;-60
2021/10/30 08:27:36;;;;;;;;;5.00;5.00;;;;;15.91;76.25;99635.63;4936037;28;45243;-60
2021/10/30 08:30:04;;;;;;;;;5.75;4.50;;;;;15.98;75.99;99643.00;4944159;28;45291;-59
2021/10/30 08:32:29;;;;;;;;;4.00;4.00;;;;;16.05;76.04;99636.91;4944061;28;45327;-61
2021/10/30 08:34:55;;;;;;;;;7.00;7.00;;;;;16.14;75.62;99637.81;4943827;28;45373;-60
2021/10/30 08:37:21;;;;;;;;;6.25;4.75;;;;;16.21;75.35;99633.56;4943893;28;45351;-60
2021/10/30 08:39:47;;;;;;;;;9.25;7.00;;;;;16.26;75.32;99641.88;4944020;28;45378;-60
2021/10/30 08:42:13;;;;;;;;;5.75;4.25;;;;;16.35;75.18;99637.47;4942649;28;45472;-60
2021/10/30 08:44:41;;;;;;;;;5.00;5.00;;;;;16.45;75.07;99635.56;4942390;28;45325;-60
2021/10/30 08:47:08;;;;;;;;;5.00;5.00;;;;;16.49;75.19;99636.91;4943840;28;45492;-59
2021/10/30 08:49:37;;;;;;;;;6.00;5.50;;;;;16.54;74.92;99641.78;4943769;28;45333;-61
2021/10/30 08:52:05;;;;;;;;;5.00;5.00;;;;;16.54;74.72;99639.94;4943950;28;45577;-61
2021/10/30 08:54:33;;;;;;;;;5.75;5.00;;;;;16.56;74.56;99639.78;4943568;28;45926;-60
2021/10/30 08:56:58;;;;;;;;;6.75;6.75;;;;;16.56;74.55;99629.97;4943667;28;45355;-60
2021/10/30 08:59:37;;;;;;;;;8.50;6.00;;;;;16.57;74.40;99638.78;4943929;28;45303;-60
2021/10/30 09:02:04;;;;;;;;;7.25;5.75;;;;;16.55;74.31;99641.59;4943488;28;45235;-60
2021/10/30 09:04:29;;;;;;;;;8.25;5.50;;;;;16.56;74.42;99645.09;4943270;28;46004;-60
2021/10/30 09:07:05;;;;;;;;;5.00;4.00;;;;;16.54;74.50;99639.13;4942133;28;45409;-60
2021/10/30 09:09:31;;;;;;;;;6.75;5.75;;;;;16.53;74.82;99638.28;4943801;28;45260;-60
2021/10/30 09:12:03;;;;;;;;;3.25;3.25;;;;;16.54;74.85;99633.78;4943598;28;45352;-60
2021/10/30 09:14:43;;;;;;;;;6.00;5.00;;;;;16.51;74.66;99634.94;4943124;28;45299;-60
2021/10/30 09:17:10;;;;;;;;;5.25;5.25;;;;;16.50;74.59;99627.94;4943225;28;45338;-60
2021/10/30 09:19:37;;;;;;;;;5.00;4.75;;;;;16.51;74.51;99634.09;4943405;28;45303;-60
2021/10/30 09:22:04;;;;;;;;;4.00;4.00;;;;;16.51;74.61;99642.94;4943365;28;45240;-60
2021/10/30 09:24:30;;;;;;;;;4.75;4.75;;;;;16.50;74.85;99635.09;4943125;28;45501;-60
2021/10/30 09:26:56;;;;;;;;;6.00;5.00;;;;;16.49;74.80;99639.56;4943137;28;45244;-60
2021/10/30 09:29:21;;;;;;;;;4.00;4.00;;;;;16.49;74.72;99636.91;4943270;28;45237;-60
2021/10/30 09:31:48;;;;;;;;;5.00;5.00;;;;;16.52;74.90;99646.41;4943329;28;45607;-60
2021/10/30 09:34:27;;;;;;;;;5.00;3.50;;;;;16.50;74.94;99659.84;4942981;28;46599;-61
2021/10/30 09:36:56;;;;;;;;;4.00;4.00;;;;;16.48;75.16;99651.19;4943097;28;45171;-60
2021/10/30 09:39:21;;;;;;;;;4.00;4.00;;;;;16.43;75.28;99654.34;4943140;28;45279;-60
2021/10/30 09:41:52;;;;;;;;;6.50;4.75;;;;;16.41;75.42;99650.97;4942972;28;45484;-60
2021/10/30 09:44:23;;;;;;;;;3.25;3.25;;;;;16.37;75.53;99656.78;4942923;28;45377;-61
2021/10/30 09:46:57;;;;;;;;;8.50;4.00;;;;;16.35;75.73;99659.59;4942790;28;45350;-60
2021/10/30 09:49:28;;;;;;;;;4.75;4.00;;;;;16.34;76.05;99657.06;4942905;28;45290;-60
2021/10/30 09:52:08;;;;;;;;;4.75;4.75;;;;;16.33;76.12;99656.22;4943178;28;45430;-61
2021/10/30 09:54:44;;;;;;;;;5.75;5.00;;;;;16.35;76.34;99661.38;4942517;28;45405;-60
2021/10/30 09:57:16;;;;;;;;;4.25;4.25;;;;;16.35;76.63;99656.06;4942228;28;45382;-61
2021/10/30 09:59:42;;;;;;;;;5.00;5.00;;;;;16.34;76.53;99657.06;4942942;28;45465;-60
2021/10/30 10:02:08;;;;;;;;;9.50;5.75;;;;;16.33;76.49;99655.41;4942727;28;45422;-60
2021/10/30 10:04:39;;;;;;;;;5.75;4.75;;;;;16.30;76.60;99659.22;4942549;28;46198;-60
2021/10/30 10:07:06;;;;;;;;;6.25;5.25;;;;;16.29;76.67;99656.72;4942468;28;45286;-60
2021/10/30 10:09:32;;;;;;;;;9.00;5.00;;;;;16.31;76.71;99660.03;4942824;28;45322;-60
2021/10/30 10:12:00;;;;;;;;;7.00;6.75;;;;;16.32;76.70;99656.38;4942832;28;45411;-60
2021/10/30 10:14:26;;;;;;;;;8.25;7.00;;;;;16.31;76.99;99663.53;4942648;28;45275;-61
2021/10/30 10:16:53;;;;;;;;;4.75;4.75;;;;;16.30;76.77;99661.88;4942459;28;45277;-60
2021/10/30 10:19:20;;;;;;;;;8.25;6.75;;;;;16.26;76.94;99665.81;4942741;28;45294;-60
2021/10/30 10:21:47;;;;;;;;;7.75;6.75;;;;;16.28;76.61;99668.34;4942652;28;45236;-60
2021/10/30 10:24:18;;;;;;;;;6.50;6.25;;;;;16.30;76.93;99674.31;4942410;28;46187;-60
2021/10/30 10:26:50;;;;;;;;;9.00;6.75;;;;;16.29;76.97;99672.66;4942314;28;45423;-60
2021/10/30 10:29:43;;;;;;;;;9.00;7.25;;;;;16.31;77.04;99674.16;4942650;28;45327;-60
2021/10/30 10:32:20;;;;;;;;;5.50;5.50;;;;;16.32;76.76;99675.00;4940824;28;45404;-59
2021/10/30 10:34:47;;;;;;;;;5.75;5.25;;;;;16.36;76.63;99674.53;4941944;28;46237;-60
2021/10/30 10:37:13;;;;;;;;;5.25;5.25;;;;;16.40;76.81;99675.06;4942262;28;45323;-59
2021/10/30 10:39:39;;;;;;;;;8.00;6.00;;;;;16.43;76.84;99680.91;4942290;28;45248;-59
2021/10/30 10:42:06;;;;;;;;;4.50;4.50;;;;;16.44;76.68;99679.09;4942332;28;45573;-61
2021/10/30 10:44:35;;;;;;;;;6.25;5.75;;;;;16.44;76.63;99674.59;4942060;28;45192;-60
2021/10/30 10:47:02;;;;;;;;;4.00;4.00;;;;;16.44;76.53;99674.59;4942115;28;45251;-61
2021/10/30 10:49:34;;;;;;;;;3.00;3.00;;;;;16.46;76.47;99669.13;4942002;28;45225;-60
2021/10/30 10:52:30;;;;;;;;;4.25;4.00;;;;;16.47;76.24;99674.28;4942484;28;45488;-62
2021/10/30 10:54:59;;;;;;;;;10.00;6.00;;;;;16.52;76.54;99675.66;4941759;28;45441;-60
2021/10/30 10:57:27;;;;;;;;;4.75;4.75;;;;;16.56;76.63;99677.00;4942259;28;45231;-60
2021/10/30 10:59:58;;;;;;;;;6.00;6.00;;;;;16.58;76.55;99680.34;4942311;28;45282;-60
2021/10/30 11:02:30;;;;;;;;;8.25;6.75;;;;;16.58;76.47;99667.03;4941684;28;45232;-60
2021/10/30 11:05:07;;;;;;;;;6.25;5.00;;;;;16.58;76.48;99672.34;4941898;28;45506;-61
2021/10/30 11:07:40;;;;;;;;;7.00;4.00;;;;;16.57;76.62;99670.69;4942740;28;45248;-60
2021/10/30 11:10:12;;;;;;;;;8.00;5.00;;;;;16.54;76.26;99669.19;4945127;28;45424;-61
2021/10/30 11:12:38;;;;;;;;;5.75;4.75;;;;;16.55;76.40;99665.53;4945662;28;45593;-60
2021/10/30 11:15:06;;;;;;;;;6.50;5.00;;;;;16.59;76.21;99672.22;4945075;28;45354;-60
2021/10/30 11:17:49;;;;;;;;;10.25;8.00;;;;;16.63;76.48;99664.75;4944993;28;45421;-60
2021/10/30 11:20:18;;;;;;;;;8.75;6.50;;;;;16.68;76.53;99670.47;4945121;28;45373;-60
2021/10/30 11:23:00;;;;;;;;;6.75;5.00;;;;;16.71;76.44;99670.16;4945193;28;45838;-60
2021/10/30 11:25:32;;;;;;;;;6.50;4.50;;;;;16.74;76.63;99662.69;4944929;28;45403;-61